Time;durP1;ratioP1;P1;durP2;ratioP2;P2;SDS_P1;SDS_P2;PMS_P1;PMS_P2;Temp;Humidity;BMP_temperature;BMP_pressure;BME280_temperature;BME280_humidity;BME280_pressure;Samples;Min_cycle;Max_cycle;Signal;HPM_P1;HPM_P2
2023/08/22 00:04:53;;;;;;;17.48;8.07;;;;;17.00;101631.00;;;;10426359;27;20199;-76
2023/08/22 00:09:54;;;;;;;13.35;8.02;;;;;17.00;101626.00;;;;10426878;27;20216;-78
2023/08/22 00:14:56;;;;;;;18.52;9.23;;;;;16.90;101621.00;;;;10439430;27;21007;-78
2023/08/22 00:19:57;;;;;;;15.23;8.63;;;;;16.90;101617.00;;;;10453728;27;20218;-80
2023/08/22 00:24:58;;;;;;;20.45;8.65;;;;;16.90;101617.00;;;;10453309;27;20488;-77
2023/08/22 00:29:59;;;;;;;11.93;8.48;;;;;17.00;101619.00;;;;10427168;27;21202;-77
2023/08/22 00:35:02;;;;;;;16.48;9.70;;;;;17.00;101616.00;;;;10445729;27;20335;-78
2023/08/22 00:40:05;;;;;;;13.77;9.00;;;;;17.00;101597.00;;;;10429211;28;20277;-78
2023/08/22 00:45:07;;;;;;;23.20;10.32;;;;;16.90;101592.00;;;;10438248;27;20600;-79
2023/08/22 00:50:09;;;;;;;18.17;10.70;;;;;16.80;101583.00;;;;10445449;27;20219;-80
2023/08/22 00:55:12;;;;;;;21.67;10.77;;;;;16.80;101582.00;;;;10436114;27;20220;-76
2023/08/22 01:00:13;;;;;;;22.70;9.48;;;;;16.80;101569.00;;;;10446940;27;21942;-78
2023/08/22 01:10:58;;;;;;;16.42;8.65;;;;;16.80;101583.00;;;;10041858;29;21702;-76
2023/08/22 01:16:01;;;;;;;20.05;9.43;;;;;16.70;101577.00;;;;10014237;29;20353;-77
2023/08/22 01:21:07;;;;;;;13.05;8.80;;;;;16.60;101563.00;;;;10070101;29;20522;-76
2023/08/22 01:26:09;;;;;;;19.85;9.32;;;;;16.60;101556.00;;;;10058176;29;20307;-78
2023/08/22 01:31:17;;;;;;;15.13;9.00;;;;;16.50;101564.00;;;;10042035;29;20792;-77
2023/08/22 01:36:20;;;;;;;14.43;8.10;;;;;16.40;101549.00;;;;10060142;29;20254;-77
2023/08/22 01:41:22;;;;;;;18.50;9.50;;;;;16.40;101564.00;;;;10062839;29;20693;-77
2023/08/22 01:46:24;;;;;;;17.15;8.48;;;;;16.30;101559.00;;;;10020674;29;20310;-77
2023/08/22 01:51:25;;;;;;;16.27;7.90;;;;;16.30;101557.00;;;;10052635;29;20447;-76
2023/08/22 01:56:27;;;;;;;25.48;10.55;;;;;16.30;101557.00;;;;10009487;29;20962;-77
2023/08/22 02:01:28;;;;;;;17.42;8.32;;;;;16.20;101543.00;;;;10035648;29;20210;-76
2023/08/22 02:06:31;;;;;;;17.80;9.38;;;;;16.20;101541.00;;;;10051426;29;20686;-77
2023/08/22 02:11:32;;;;;;;17.88;8.98;;;;;16.20;101542.00;;;;10055669;29;21394;-77
2023/08/22 02:16:34;;;;;;;14.38;8.40;;;;;16.20;101532.00;;;;10029662;29;20259;-77
2023/08/22 02:21:35;;;;;;;18.05;9.25;;;;;16.30;101531.00;;;;10020798;29;20596;-77
2023/08/22 02:26:37;;;;;;;22.17;8.93;;;;;16.30;101523.00;;;;10061710;29;20203;-76
2023/08/22 02:31:38;;;;;;;16.42;8.70;;;;;16.30;101516.00;;;;10032797;29;20211;-77
2023/08/22 02:36:40;;;;;;;13.88;8.75;;;;;16.40;101509.00;;;;10054572;29;20234;-77
2023/08/22 02:41:41;;;;;;;14.30;8.25;;;;;16.40;101503.00;;;;10057206;29;20207;-76
2023/08/22 02:46:43;;;;;;;19.77;8.95;;;;;16.40;101496.00;;;;10056311;29;20210;-77
2023/08/22 02:51:44;;;;;;;15.52;8.10;;;;;16.50;101505.00;;;;10067172;29;21620;-77
2023/08/22 02:56:45;;;;;;;13.70;7.72;;;;;16.60;101504.00;;;;10054526;29;20226;-76
2023/08/22 03:01:47;;;;;;;13.77;8.43;;;;;16.60;101504.00;;;;10037814;29;20243;-75
2023/08/22 03:06:48;;;;;;;17.73;7.88;;;;;16.60;101499.00;;;;10043553;29;20281;-77
2023/08/22 03:11:50;;;;;;;14.05;7.90;;;;;16.60;101497.00;;;;10077176;28;20842;-78
2023/08/22 03:16:52;;;;;;;14.90;7.60;;;;;16.50;101511.00;;;;10078434;28;20333;-78
2023/08/22 03:21:54;;;;;;;11.90;7.57;;;;;16.50;101506.00;;;;10079277;29;20795;-77
2023/08/22 03:26:55;;;;;;;14.20;7.32;;;;;16.40;101512.00;;;;10092165;29;20257;-77
2023/08/22 03:31:58;;;;;;;11.32;7.57;;;;;16.40;101506.00;;;;10060684;28;20224;-78
2023/08/22 03:36:59;;;;;;;15.57;8.15;;;;;16.40;101506.00;;;;10093627;28;21068;-77
2023/08/22 03:42:01;;;;;;;20.95;8.80;;;;;16.30;101502.00;;;;10077169;28;21662;-76
2023/08/22 03:47:02;;;;;;;15.50;8.32;;;;;16.20;101503.00;;;;10092806;28;20202;-77
2023/08/22 03:52:12;;;;;;;12.23;7.20;;;;;16.20;101499.00;;;;10083273;28;20228;-77
2023/08/22 03:57:14;;;;;;;11.02;7.65;;;;;16.20;101497.00;;;;10068512;28;20709;-77
2023/08/22 04:02:16;;;;;;;17.33;7.90;;;;;16.10;101488.00;;;;10113266;28;20209;-76
2023/08/22 04:07:17;;;;;;;18.58;8.18;;;;;16.10;101490.00;;;;10080458;29;21243;-77
2023/08/22 04:12:19;;;;;;;11.40;7.32;;;;;16.10;101488.00;;;;10117786;28;20641;-77
2023/08/22 04:17:20;;;;;;;18.10;8.10;;;;;16.00;101495.00;;;;10082650;29;20225;-76
2023/08/22 04:22:21;;;;;;;9.98;7.25;;;;;16.00;101497.00;;;;10067233;28;20209;-77
2023/08/22 04:27:23;;;;;;;13.63;7.63;;;;;15.90;101500.00;;;;10063085;29;20206;-77
2023/08/22 04:32:25;;;;;;;13.82;7.25;;;;;15.80;101503.00;;;;10069742;29;20267;-76
2023/08/22 04:37:28;;;;;;;17.30;6.88;;;;;15.80;101504.00;;;;10079444;29;20219;-77
2023/08/22 04:42:30;;;;;;;12.38;7.50;;;;;15.80;101502.00;;;;10084960;28;20210;-77
2023/08/22 04:47:39;;;;;;;10.05;7.40;;;;;15.80;101512.00;;;;10084473;28;20606;-77
2023/08/22 04:52:41;;;;;;;12.00;6.93;;;;;15.80;101501.00;;;;10079974;29;20285;-77
2023/08/22 04:57:43;;;;;;;12.32;7.63;;;;;15.80;101508.00;;;;10112611;28;20229;-77
2023/08/22 05:02:45;;;;;;;12.90;6.80;;;;;15.80;101509.00;;;;10084373;29;20584;-77
2023/08/22 05:07:46;;;;;;;12.57;6.63;;;;;15.80;101516.00;;;;10085826;28;20316;-77
2023/08/22 05:12:48;;;;;;;14.35;7.32;;;;;15.90;101504.00;;;;10110926;28;20921;-77
2023/08/22 05:17:49;;;;;;;9.02;6.90;;;;;16.00;101500.00;;;;10098833;28;20222;-77
2023/08/22 05:22:51;;;;;;;9.13;6.90;;;;;16.10;101516.00;;;;10065719;28;20714;-77
2023/08/22 05:27:53;;;;;;;16.98;8.55;;;;;16.30;101507.00;;;;10065871;28;21066;-77
2023/08/22 05:32:54;;;;;;;12.45;8.18;;;;;16.50;101505.00;;;;10097589;28;21334;-75
2023/08/22 05:37:56;;;;;;;12.05;7.93;;;;;16.80;101514.00;;;;10098760;29;20255;-76
2023/08/22 05:42:58;;;;;;;11.10;7.55;;;;;17.00;101515.00;;;;10101451;29;20253;-77
2023/08/22 05:48:01;;;;;;;14.50;9.98;;;;;17.30;101513.00;;;;10100084;28;21073;-77
2023/08/22 05:53:03;;;;;;;14.48;9.45;;;;;17.80;101519.00;;;;10066699;29;20479;-77
2023/08/22 05:58:05;;;;;;;17.13;9.68;;;;;18.30;101522.00;;;;10065593;29;20708;-77
2023/08/22 06:03:06;;;;;;;14.40;8.65;;;;;18.60;101515.00;;;;10082955;28;20214;-77
2023/08/22 06:08:08;;;;;;;13.43;7.82;;;;;19.00;101514.00;;;;10108429;28;21252;-77
2023/08/22 06:13:09;;;;;;;17.90;9.40;;;;;19.90;101508.00;;;;10098106;28;20210;-77
2023/08/22 06:18:10;;;;;;;19.27;8.70;;;;;20.60;101515.00;;;;10114461;28;20221;-77
2023/08/22 06:23:12;;;;;;;16.85;8.05;;;;;20.50;101521.00;;;;10063314;29;21324;-78
2023/08/22 06:28:13;;;;;;;16.20;8.60;;;;;20.20;101519.00;;;;10097997;28;20929;-77
2023/08/22 06:33:16;;;;;;;14.50;7.75;;;;;20.10;101531.00;;;;10094742;29;21008;-77
2023/08/22 06:38:19;;;;;;;16.35;7.68;;;;;21.00;101527.00;;;;10095793;28;20844;-77
2023/08/22 06:43:22;;;;;;;15.95;7.68;;;;;21.90;101514.00;;;;10110082;28;20307;-78
2023/08/22 06:48:30;;;;;;;11.43;6.72;;;;;22.70;101509.00;;;;10076377;29;20789;-78
2023/08/22 06:53:42;;;;;;;11.32;6.15;;;;;23.00;101519.00;;;;10075203;29;20313;-78
2023/08/22 06:58:44;;;;;;;17.55;6.13;;;;;23.20;101524.00;;;;10073951;29;20227;-78
2023/08/22 07:03:45;;;;;;;22.00;6.88;;;;;23.30;101528.00;;;;10095359;28;20218;-78
2023/08/22 07:08:47;;;;;;;21.95;6.70;;;;;23.60;101533.00;;;;10098095;28;21147;-77
2023/08/22 07:13:51;;;;;;;12.63;9.75;;;;;23.60;101548.00;;;;10072984;29;20305;-78
2023/08/22 07:18:52;;;;;;;12.70;6.70;;;;;23.40;101552.00;;;;10059067;28;21396;-77
2023/08/22 07:23:54;;;;;;;14.93;6.60;;;;;23.30;101557.00;;;;10093400;29;20206;-79
2023/08/22 07:28:55;;;;;;;14.93;7.13;;;;;23.20;101567.00;;;;10094745;28;21451;-78
2023/08/22 07:33:56;;;;;;;18.38;7.53;;;;;23.40;101567.00;;;;10074507;28;20233;-77
2023/08/22 07:38:58;;;;;;;21.05;7.80;;;;;23.40;101576.00;;;;10085431;28;20294;-77
2023/08/22 07:43:59;;;;;;;19.67;7.40;;;;;23.50;101584.00;;;;10087225;28;20657;-78
2023/08/22 07:49:01;;;;;;;16.92;8.23;;;;;23.80;101586.00;;;;10106185;28;20892;-78
2023/08/22 07:54:03;;;;;;;11.70;6.05;;;;;24.10;101579.00;;;;10067380;28;21788;-77
2023/08/22 07:59:04;;;;;;;10.18;6.30;;;;;23.90;101571.00;;;;10084365;28;20210;-79
2023/08/22 08:04:08;;;;;;;8.45;6.60;;;;;24.10;101575.00;;;;10087316;28;20225;-79
2023/08/22 08:09:11;;;;;;;14.05;7.47;;;;;24.50;101577.00;;;;10086615;28;20457;-78
2023/08/22 08:14:26;;;;;;;9.77;5.38;;;;;24.50;101583.00;;;;10082150;28;20233;-79
2023/08/22 08:19:27;;;;;;;6.85;3.72;;;;;24.50;101584.00;;;;10094024;28;20216;-78
2023/08/22 08:24:28;;;;;;;4.05;2.97;;;;;24.60;101589.00;;;;10093977;28;21581;-77
2023/08/22 08:29:30;;;;;;;6.18;2.20;;;;;24.60;101581.00;;;;10054398;28;20306;-77
2023/08/22 08:34:31;;;;;;;5.50;2.10;;;;;24.40;101584.00;;;;10087539;28;20271;-78
2023/08/22 08:39:32;;;;;;;5.97;2.00;;;;;24.50;101573.00;;;;10091461;28;20261;-78
2023/08/22 08:44:34;;;;;;;8.27;1.88;;;;;24.60;101582.00;;;;10090058;28;20550;-77
2023/08/22 08:49:37;;;;;;;4.15;1.60;;;;;25.00;101580.00;;;;10088235;28;20210;-79
2023/08/22 08:54:39;;;;;;;2.70;1.30;;;;;25.00;101581.00;;;;10090572;28;20613;-78
2023/08/22 08:59:41;;;;;;;3.53;1.92;;;;;24.70;101578.00;;;;10099656;28;20225;-77
2023/08/22 09:04:43;;;;;;;3.92;2.13;;;;;24.90;101571.00;;;;10087522;28;20214;-77
2023/08/22 09:09:44;;;;;;;4.90;1.92;;;;;25.00;101584.00;;;;10080806;28;20255;-78
2023/08/22 09:14:47;;;;;;;3.63;1.92;;;;;25.30;101589.00;;;;10093027;28;20227;-78
2023/08/22 09:19:51;;;;;;;4.80;2.00;;;;;25.60;101582.00;;;;10096399;28;21607;-79
2023/08/22 09:24:54;;;;;;;6.35;1.83;;;;;25.80;101592.00;;;;10099038;28;20517;-79
2023/08/22 09:30:04;;;;;;;9.80;2.33;;;;;25.70;101585.00;;;;10069042;28;20298;-79
2023/08/22 09:35:07;;;;;;;6.47;2.42;;;;;25.50;101604.00;;;;10094581;28;20350;-77
2023/08/22 09:40:09;;;;;;;5.80;2.03;;;;;25.60;101599.00;;;;10074869;28;20440;-79
2023/08/22 09:45:11;;;;;;;5.72;1.77;;;;;25.80;101592.00;;;;10075066;28;20713;-77
2023/08/22 09:50:15;;;;;;;6.45;1.95;;;;;26.00;101594.00;;;;10117263;28;20210;-78
2023/08/22 09:55:17;;;;;;;6.78;2.17;;;;;26.50;101595.00;;;;10090969;28;20459;-78
2023/08/22 10:00:19;;;;;;;4.80;1.70;;;;;27.10;101607.00;;;;10058975;28;20215;-78
2023/08/22 10:05:20;;;;;;;7.20;1.75;;;;;26.90;101601.00;;;;10091346;28;20269;-78
2023/08/22 10:10:22;;;;;;;7.20;1.77;;;;;26.70;101596.00;;;;10074863;28;20672;-79
2023/08/22 10:15:24;;;;;;;5.88;1.63;;;;;28.10;101589.00;;;;10087770;28;20226;-79
2023/08/22 10:20:26;;;;;;;6.53;1.80;;;;;28.60;101588.00;;;;10097288;28;20206;-79
2023/08/22 10:25:47;;;;;;;5.43;1.70;;;;;29.70;101595.00;;;;10097581;28;20290;-79
2023/08/22 10:31:03;;;;;;;5.40;1.50;;;;;28.20;101602.00;;;;10087205;28;20898;-79
2023/08/22 10:36:16;;;;;;;3.88;1.42;;;;;27.00;101600.00;;;;10095464;28;20218;-79
2023/08/22 10:41:20;;;;;;;5.00;1.60;;;;;27.60;101594.00;;;;10068212;28;21295;-79
2023/08/22 10:46:58;;;;;;;5.70;1.60;;;;;28.70;101603.00;;;;10075475;28;21595;-79
2023/08/22 10:52:36;;;;;;;4.28;1.45;;;;;27.90;101597.00;;;;10086282;28;20242;-79
2023/08/22 10:57:44;;;;;;;3.38;1.27;;;;;27.90;101591.00;;;;10090687;28;20246;-79
2023/08/22 11:03:04;;;;;;;3.28;1.30;;;;;27.90;101582.00;;;;10087180;28;20605;-78
2023/08/22 11:08:06;;;;;;;3.95;1.27;;;;;29.80;101580.00;;;;10090464;28;21391;-79
2023/08/22 11:13:08;;;;;;;4.47;1.50;;;;;30.50;101576.00;;;;10096680;28;20908;-79
2023/08/22 11:18:09;;;;;;;5.53;1.92;;;;;30.20;101589.00;;;;10087087;28;20298;-79
2023/08/22 11:23:11;;;;;;;3.70;1.23;;;;;29.60;101578.00;;;;10095271;28;21015;-79
2023/08/22 11:28:12;;;;;;;6.38;1.20;;;;;29.50;101580.00;;;;10095915;28;20644;-80
2023/08/22 11:33:20;;;;;;;2.70;1.17;;;;;30.70;101589.00;;;;10071313;28;20236;-79
2023/08/22 11:38:22;;;;;;;3.78;1.20;;;;;30.90;101575.00;;;;10095298;28;21174;-79
2023/08/22 11:43:23;;;;;;;6.35;1.25;;;;;29.50;101587.00;;;;10080074;28;20270;-79
2023/08/22 11:48:24;;;;;;;3.70;1.30;;;;;29.10;101583.00;;;;10094239;28;20729;-78
2023/08/22 11:53:29;;;;;;;3.38;1.10;;;;;27.90;101582.00;;;;10064114;28;21219;-78
2023/08/22 11:58:30;;;;;;;2.65;1.15;;;;;27.60;101583.00;;;;10096880;28;20684;-78
2023/08/22 12:03:44;;;;;;;3.97;1.20;;;;;27.20;101571.00;;;;10090841;28;20214;-78
2023/08/22 12:08:56;;;;;;;5.47;1.38;;;;;27.10;101582.00;;;;10095825;28;20394;-79
2023/08/22 12:13:57;;;;;;;3.20;1.30;;;;;27.30;101586.00;;;;10060546;28;20241;-78
2023/08/22 12:19:08;;;;;;;3.85;1.45;;;;;28.20;101592.00;;;;10090987;28;20218;-79
2023/08/22 12:24:10;;;;;;;2.10;1.10;;;;;28.70;101588.00;;;;10118213;28;20408;-79
2023/08/22 12:29:11;;;;;;;3.72;1.02;;;;;30.00;101571.00;;;;10072310;28;20206;-80
2023/08/22 12:34:13;;;;;;;2.92;1.00;;;;;30.50;101579.00;;;;10098732;28;20464;-79
2023/08/22 12:39:14;;;;;;;2.90;0.73;;;;;31.20;101589.00;;;;10093569;28;20210;-79
2023/08/22 12:44:16;;;;;;;2.38;1.05;;;;;30.30;101588.00;;;;10078942;28;20249;-78
2023/08/22 12:49:17;;;;;;;2.28;1.00;;;;;30.10;101575.00;;;;10084431;28;20873;-79
2023/08/22 12:54:18;;;;;;;4.10;1.05;;;;;30.10;101572.00;;;;10068734;28;20307;-78
2023/08/22 12:59:20;;;;;;;1.83;0.93;;;;;30.80;101574.00;;;;10077788;28;21562;-78
2023/08/22 13:04:21;;;;;;;3.80;1.20;;;;;30.70;101559.00;;;;10095641;28;20273;-79
2023/08/22 13:09:22;;;;;;;3.78;0.93;;;;;31.30;101555.00;;;;10099344;28;20321;-79
2023/08/22 13:14:24;;;;;;;3.40;1.13;;;;;31.00;101556.00;;;;10087913;28;20381;-79
2023/08/22 13:19:25;;;;;;;2.78;0.90;;;;;30.90;101557.00;;;;10088375;28;20207;-79
2023/08/22 13:24:26;;;;;;;3.58;1.10;;;;;30.10;101553.00;;;;10087681;28;20294;-79
2023/08/22 13:29:28;;;;;;;1.60;0.90;;;;;30.60;101549.00;;;;10067821;28;20249;-80
2023/08/22 13:34:29;;;;;;;3.30;1.10;;;;;31.00;101542.00;;;;10068136;28;20229;-79
2023/08/22 13:39:30;;;;;;;2.97;0.80;;;;;31.40;101546.00;;;;10069079;28;20206;-79
2023/08/22 13:44:32;;;;;;;2.33;1.10;;;;;30.70;101531.00;;;;10091778;28;20217;-79
2023/08/22 13:49:33;;;;;;;3.53;1.05;;;;;30.80;101542.00;;;;10068728;28;20813;-78
2023/08/22 13:54:34;;;;;;;5.45;1.05;;;;;31.00;101543.00;;;;10067514;28;20235;-79
2023/08/22 13:59:37;;;;;;;2.08;0.93;;;;;30.40;101544.00;;;;10094362;28;20202;-79
2023/08/22 14:04:39;;;;;;;2.58;0.80;;;;;30.10;101534.00;;;;10066530;28;20206;-77
2023/08/22 14:09:40;;;;;;;1.50;0.82;;;;;29.70;101533.00;;;;10098804;28;20659;-79
2023/08/22 14:14:41;;;;;;;6.07;1.33;;;;;30.40;101522.00;;;;10085320;28;20819;-79
2023/08/22 14:19:43;;;;;;;2.05;1.00;;;;;31.40;101518.00;;;;10089900;28;20263;-79
2023/08/22 14:24:44;;;;;;;4.22;1.10;;;;;32.10;101512.00;;;;10096149;28;20365;-77
2023/08/22 14:29:46;;;;;;;16.05;1.70;;;;;32.00;101502.00;;;;10074249;28;21367;-79
2023/08/22 14:34:47;;;;;;;3.17;0.68;;;;;32.60;101508.00;;;;10093070;28;20218;-77
2023/08/22 14:39:48;;;;;;;4.05;1.10;;;;;35.70;101487.00;;;;10099185;28;20222;-79
2023/08/22 14:44:50;;;;;;;4.20;1.10;;;;;35.20;101494.00;;;;10093898;28;20245;-78
2023/08/22 14:49:51;;;;;;;4.18;0.98;;;;;35.30;101501.00;;;;10074435;28;20432;-78
2023/08/22 14:54:54;;;;;;;1.55;0.90;;;;;31.90;101515.00;;;;10092156;28;20411;-78
2023/08/22 14:59:55;;;;;;;2.72;0.90;;;;;28.70;101505.00;;;;10090241;28;20217;-78
2023/08/22 15:04:56;;;;;;;3.22;0.80;;;;;27.60;101503.00;;;;10066442;28;20310;-79
2023/08/22 15:09:58;;;;;;;3.08;0.95;;;;;27.20;101494.00;;;;10079758;28;20241;-78
2023/08/22 15:14:59;;;;;;;2.25;0.95;;;;;26.80;101494.00;;;;10093390;28;20229;-79
2023/08/22 15:20:01;;;;;;;3.40;0.90;;;;;26.50;101494.00;;;;10093214;28;21243;-78
2023/08/22 15:25:03;;;;;;;2.15;1.00;;;;;26.40;101497.00;;;;10072768;28;21019;-79
2023/08/22 15:30:05;;;;;;;4.00;1.00;;;;;26.00;101496.00;;;;10096036;28;20296;-78
2023/08/22 15:35:07;;;;;;;3.13;0.88;;;;;25.90;101498.00;;;;10072327;28;21155;-77
2023/08/22 15:40:08;;;;;;;1.42;0.88;;;;;25.90;101494.00;;;;10089764;28;20214;-79
2023/08/22 15:45:10;;;;;;;3.33;1.15;;;;;26.50;101487.00;;;;10084579;28;20332;-79
2023/08/22 15:50:11;;;;;;;2.53;0.90;;;;;26.00;101488.00;;;;10064663;28;20353;-78
2023/08/22 15:55:12;;;;;;;2.25;1.00;;;;;25.70;101482.00;;;;10066489;28;21117;-77
2023/08/22 16:00:14;;;;;;;2.45;0.88;;;;;25.40;101485.00;;;;10088445;28;20218;-77
2023/08/22 16:05:17;;;;;;;5.75;1.10;;;;;25.40;101481.00;;;;10066022;28;20469;-79
2023/08/22 16:10:18;;;;;;;5.70;1.40;;;;;25.20;101479.00;;;;10084592;28;20815;-78
2023/08/22 16:15:20;;;;;;;2.95;1.20;;;;;24.80;101477.00;;;;10083469;28;20642;-77
2023/08/22 16:20:21;;;;;;;3.42;1.25;;;;;24.90;101482.00;;;;10064239;28;20822;-77
2023/08/22 16:25:22;;;;;;;2.65;1.20;;;;;25.00;101486.00;;;;10060395;28;21915;-77
2023/08/22 16:30:24;;;;;;;3.28;1.27;;;;;24.90;101487.00;;;;10090141;28;20304;-78
2023/08/22 16:35:26;;;;;;;2.53;1.20;;;;;24.90;101484.00;;;;10067237;28;20265;-78
2023/08/22 16:40:27;;;;;;;4.57;1.50;;;;;24.80;101482.00;;;;10094757;28;20203;-77
2023/08/22 16:45:29;;;;;;;4.65;1.10;;;;;24.60;101483.00;;;;10091860;28;20396;-77
2023/08/22 16:50:30;;;;;;;4.88;1.40;;;;;24.60;101485.00;;;;10091968;28;20318;-77
2023/08/22 16:55:31;;;;;;;3.83;1.55;;;;;24.60;101478.00;;;;10095750;28;20238;-77
2023/08/22 17:00:34;;;;;;;6.53;1.80;;;;;24.60;101473.00;;;;10071597;28;20617;-77
2023/08/22 17:05:41;;;;;;;4.68;1.42;;;;;24.60;101478.00;;;;10083943;28;21667;-79
2023/08/22 17:10:43;;;;;;;3.88;1.50;;;;;24.50;101478.00;;;;10093364;28;20296;-77
2023/08/22 17:15:45;;;;;;;4.85;1.55;;;;;24.50;101474.00;;;;10112152;28;20289;-78
2023/08/22 17:20:46;;;;;;;3.85;1.58;;;;;24.40;101473.00;;;;10084027;28;21344;-77
2023/08/22 17:25:48;;;;;;;5.53;1.58;;;;;24.30;101465.00;;;;10097178;28;20214;-77
2023/08/22 17:30:49;;;;;;;3.45;1.45;;;;;24.20;101468.00;;;;10075301;28;20218;-76
2023/08/22 17:35:50;;;;;;;2.08;1.40;;;;;24.10;101475.00;;;;10058228;28;20309;-78
2023/08/22 17:40:51;;;;;;;2.33;1.40;;;;;24.00;101466.00;;;;10092826;28;20313;-77
2023/08/22 17:45:52;;;;;;;4.28;1.67;;;;;23.90;101456.00;;;;10100984;28;20217;-77
2023/08/22 17:50:55;;;;;;;3.30;1.33;;;;;23.80;101455.00;;;;10086752;28;20214;-78
2023/08/22 17:55:57;;;;;;;3.22;2.10;;;;;23.60;101454.00;;;;10070883;28;20235;-77
2023/08/22 18:00:58;;;;;;;5.57;1.67;;;;;23.40;101458.00;;;;10097308;28;20357;-78
2023/08/22 18:06:00;;;;;;;5.53;1.65;;;;;23.40;101457.00;;;;10070988;28;20644;-77
2023/08/22 18:11:02;;;;;;;3.97;1.80;;;;;23.30;101465.00;;;;10097041;28;20245;-76
2023/08/22 18:16:04;;;;;;;4.97;1.50;;;;;23.10;101472.00;;;;10088499;28;20836;-79
2023/08/22 18:21:12;;;;;;;8.30;1.88;;;;;23.00;101478.00;;;;10071296;28;20738;-79
2023/08/22 18:26:14;;;;;;;4.00;1.70;;;;;22.80;101479.00;;;;10068898;28;20206;-77
2023/08/22 18:31:15;;;;;;;2.95;1.75;;;;;22.60;101482.00;;;;10092801;28;20685;-77
2023/08/22 18:36:25;;;;;;;5.43;1.63;;;;;22.40;101493.00;;;;10087754;28;20225;-78
2023/08/22 18:41:26;;;;;;;4.15;1.80;;;;;22.10;101491.00;;;;10098994;28;20300;-78
2023/08/22 18:46:27;;;;;;;3.95;2.30;;;;;21.90;101494.00;;;;10075713;28;20279;-77
2023/08/22 18:51:29;;;;;;;4.88;1.67;;;;;21.70;101503.00;;;;10098651;28;20801;-77
2023/08/22 18:56:31;;;;;;;3.20;2.05;;;;;21.60;101504.00;;;;10058576;28;20349;-77
2023/08/22 19:01:35;;;;;;;5.70;2.00;;;;;21.40;101509.00;;;;10082471;28;20585;-77
2023/08/22 19:06:37;;;;;;;6.65;1.90;;;;;21.20;101515.00;;;;10098913;28;20242;-77
2023/08/22 19:11:38;;;;;;;7.38;2.20;;;;;21.10;101516.00;;;;10073538;28;20567;-76
2023/08/22 19:16:39;;;;;;;5.45;1.42;;;;;20.90;101516.00;;;;10087407;28;20278;-76
2023/08/22 19:21:40;;;;;;;5.07;1.77;;;;;20.70;101534.00;;;;10049485;28;20759;-76
2023/08/22 19:26:42;;;;;;;2.97;1.90;;;;;20.60;101536.00;;;;10097228;28;20213;-77
2023/08/22 19:31:44;;;;;;;3.60;1.83;;;;;20.40;101539.00;;;;10111646;28;20389;-77
2023/08/22 19:36:45;;;;;;;4.13;2.17;;;;;20.30;101531.00;;;;10086260;28;20393;-78
2023/08/22 19:41:46;;;;;;;5.47;2.20;;;;;20.20;101536.00;;;;10072488;28;20206;-77
2023/08/22 19:46:48;;;;;;;3.65;1.70;;;;;20.10;101528.00;;;;10075012;28;20636;-78
2023/08/22 19:51:49;;;;;;;5.78;1.95;;;;;20.00;101537.00;;;;10091850;28;20293;-78
2023/08/22 19:56:50;;;;;;;6.53;2.20;;;;;19.90;101541.00;;;;10065342;28;20946;-77
2023/08/22 20:01:52;;;;;;;3.08;1.90;;;;;19.90;101545.00;;;;10072815;28;20508;-77
2023/08/22 20:06:53;;;;;;;5.35;1.92;;;;;19.80;101549.00;;;;10090976;28;20285;-77
2023/08/22 20:11:55;;;;;;;4.97;1.95;;;;;19.70;101557.00;;;;10063958;28;20349;-77
2023/08/22 20:16:56;;;;;;;5.85;2.20;;;;;19.60;101556.00;;;;10097077;28;20288;-77
2023/08/22 20:21:58;;;;;;;4.75;1.65;;;;;19.50;101556.00;;;;10095366;28;20218;-77
2023/08/22 20:27:03;;;;;;;4.13;2.13;;;;;19.40;101548.00;;;;10061617;28;20342;-77
2023/08/22 20:32:05;;;;;;;4.80;2.30;;;;;19.30;101558.00;;;;10099870;28;20213;-77
2023/08/22 20:37:06;;;;;;;5.43;2.65;;;;;19.20;101559.00;;;;10065896;28;21756;-77
2023/08/22 20:42:07;;;;;;;9.50;2.15;;;;;19.10;101557.00;;;;10076651;28;20991;-78
2023/08/22 20:47:08;;;;;;;7.03;2.35;;;;;19.10;101549.00;;;;10103187;28;20323;-76
2023/08/22 20:52:13;;;;;;;5.72;2.40;;;;;19.00;101547.00;;;;10074094;28;20805;-76
2023/08/22 20:57:14;;;;;;;5.38;2.53;;;;;18.90;101542.00;;;;10113595;28;20241;-78
2023/08/22 21:02:15;;;;;;;5.18;2.45;;;;;18.80;101551.00;;;;10071510;28;20210;-76
2023/08/22 21:07:17;;;;;;;4.28;2.20;;;;;18.60;101567.00;;;;10090659;28;21337;-77
2023/08/22 21:12:20;;;;;;;8.15;4.00;;;;;18.60;101573.00;;;;10092373;28;20298;-76
2023/08/22 21:17:21;;;;;;;7.97;3.53;;;;;18.50;101587.00;;;;10090789;28;20521;-76
2023/08/22 21:22:23;;;;;;;9.70;3.45;;;;;18.40;101577.00;;;;10096759;28;20222;-77
2023/08/22 21:27:24;;;;;;;5.40;3.20;;;;;18.30;101574.00;;;;10076317;28;20752;-77
2023/08/22 21:32:26;;;;;;;3.53;2.90;;;;;18.20;101582.00;;;;10065929;28;20332;-77
2023/08/22 21:37:27;;;;;;;6.63;3.08;;;;;18.10;101586.00;;;;10075850;28;20226;-77
2023/08/22 21:42:28;;;;;;;8.20;3.08;;;;;18.00;101585.00;;;;10116084;28;20280;-77
2023/08/22 21:47:29;;;;;;;6.45;3.38;;;;;18.00;101586.00;;;;10099236;28;20295;-77
2023/08/22 21:52:31;;;;;;;5.55;3.25;;;;;18.00;101592.00;;;;10091164;28;20700;-77
2023/08/22 21:57:32;;;;;;;7.97;3.60;;;;;17.90;101587.00;;;;10069335;28;20234;-77
2023/08/22 22:02:34;;;;;;;9.23;3.80;;;;;17.90;101575.00;;;;10075500;28;20209;-77
2023/08/22 22:07:35;;;;;;;4.80;3.53;;;;;17.90;101585.00;;;;10048898;28;20804;-77
2023/08/22 22:12:37;;;;;;;5.05;3.45;;;;;17.90;101591.00;;;;10098583;28;20796;-77
2023/08/22 22:17:39;;;;;;;7.55;3.60;;;;;17.90;101588.00;;;;10088659;28;21139;-77
2023/08/22 22:22:41;;;;;;;10.70;3.45;;;;;17.90;101585.00;;;;10063861;28;20205;-77
2023/08/22 22:27:42;;;;;;;6.38;3.47;;;;;17.80;101592.00;;;;10095837;28;20206;-77
2023/08/22 22:32:43;;;;;;;7.63;3.38;;;;;17.80;101583.00;;;;10086417;28;20383;-76
2023/08/22 22:37:45;;;;;;;5.18;3.53;;;;;17.80;101588.00;;;;10078141;28;20349;-77
2023/08/22 22:42:48;;;;;;;4.35;3.20;;;;;17.70;101579.00;;;;10077388;28;20639;-77
2023/08/22 22:47:49;;;;;;;3.17;2.88;;;;;17.80;101581.00;;;;10094129;28;20210;-77
2023/08/22 22:52:51;;;;;;;5.70;3.17;;;;;17.80;101578.00;;;;10113852;28;21005;-77
2023/08/22 22:57:54;;;;;;;6.65;3.60;;;;;17.80;101569.00;;;;10095742;28;20234;-77
2023/08/22 23:02:57;;;;;;;6.80;3.72;;;;;17.80;101576.00;;;;10062741;28;20239;-77
2023/08/22 23:07:59;;;;;;;10.23;4.20;;;;;17.80;101571.00;;;;10097161;28;20240;-76
2023/08/22 23:13:00;;;;;;;10.57;4.18;;;;;17.70;101566.00;;;;10076443;28;20259;-77
2023/08/22 23:18:01;;;;;;;5.40;3.30;;;;;17.60;101565.00;;;;10095749;28;20372;-78
2023/08/22 23:23:03;;;;;;;6.03;3.75;;;;;17.50;101559.00;;;;10086680;28;20273;-77
2023/08/22 23:28:04;;;;;;;7.30;4.03;;;;;17.30;101563.00;;;;10096578;28;20218;-77
2023/08/22 23:33:05;;;;;;;6.35;3.65;;;;;17.20;101565.00;;;;10098652;28;20300;-78
2023/08/22 23:38:07;;;;;;;6.13;3.72;;;;;17.10;101559.00;;;;10088022;28;20236;-77
2023/08/22 23:43:08;;;;;;;5.35;3.70;;;;;17.00;101568.00;;;;10068674;28;20797;-77
2023/08/22 23:48:10;;;;;;;4.07;3.53;;;;;17.00;101556.00;;;;10071346;28;20696;-77
2023/08/22 23:53:11;;;;;;;7.80;4.20;;;;;16.90;101557.00;;;;10071589;28;20221;-76
2023/08/22 23:58:12;;;;;;;5.32;3.55;;;;;16.90;101540.00;;;;10090742;28;20223;-77
